METAR Data
IDs: Format: Raw Decoded Include TAF

Data at: 2058 UTC 10 May 2021

KAIB 102055Z AUTO 33003KT 10SM OVC080 15/M04 A2998 RMK AO2 T01511042
KAIB 102035Z AUTO 34006KT 10SM OVC080 15/M04 A3000 RMK AO2 T01491040
KAIB 102015Z AUTO 35007KT 10SM BKN075 BKN110 15/M04 A3000 RMK AO2 T01491036
KAIB 101955Z AUTO 34008KT 10SM SCT075 BKN095 BKN120 15/M04 A3000 RMK AO2 T01491038
KAIB 101935Z AUTO 33005KT 10SM SCT075 SCT085 15/M04 A3000 RMK AO2 T01491042
KAIB 101915Z AUTO 30004G14KT 10SM SCT080 SCT085 SCT120 15/M03 A3001 RMK AO2 T01521031
KAIB 101855Z AUTO 33010KT 270V350 10SM SCT065 BKN075 BKN120 16/M03 A3001 RMK AO2 T01621028
KAIB 101835Z AUTO 32004G16KT 10SM BKN065 BKN075 BKN120 15/M03 A3002 RMK AO2 T01451030
KAIB 101815Z AUTO 23005KT 10SM SCT070 SCT075 SCT120 15/M03 A3003 RMK AO2 T01521030
KAIB 101755Z AUTO 32010G15KT 290V350 10SM BKN110 15/M03 A3003 RMK AO2 LTG DSNT N T01491029 10149 20060
KAIB 101735Z AUTO 32009G17KT 10SM BKN110 15/M02 A3003 RMK AO2 T01451023
KAIB 101715Z AUTO 32010G16KT 10SM CLR 14/M02 A3003 RMK AO2 T01401021
KAIB 101655Z AUTO 32014G21KT 10SM CLR 13/M02 A3004 RMK AO2 T01321018
KAIB 101635Z AUTO 30017G21KT 10SM CLR 13/M01 A3004 RMK AO2 T01311015
KAIB 101615Z AUTO 30014KT 10SM SCT120 13/M02 A3004 RMK AO2 T01301016
KAIB 101555Z AUTO 32012G17KT 10SM SCT120 13/M02 A3003 RMK AO2 T01261025
KAIB 101535Z AUTO 30014G18KT 10SM SCT120 12/M03 A3003 RMK AO2 T01221030
KAIB 101515Z AUTO 30012G15KT 10SM SCT120 12/M03 A3003 RMK AO2 T01181035
KAIB 101455Z AUTO 34004KT 10SM SCT110 11/M04 A3003 RMK AO2 T01101042
KAIB 101435Z AUTO 32003KT 10SM OVC110 11/M05 A3002 RMK AO2 T01051046
KAIB 101415Z AUTO 30003KT 10SM BKN110 10/M05 A3003 RMK AO2 T00971055
KAIB 101355Z AUTO 00000KT 10SM OVC110 09/M06 A3003 RMK AO2 T00871061
KAIB 101335Z AUTO 00000KT 10SM OVC110 07/M06 A3002 RMK AO2 T00721064
KAIB 101315Z AUTO 00000KT 10SM OVC110 07/M06 A3000 RMK AO2 T00731059
KAIB 101255Z AUTO 00000KT 10SM OVC110 07/M07 A3001 RMK AO2 T00731073
KAIB 101235Z AUTO 31003KT 10SM SCT110 07/M08 A3000 RMK AO2 T00711076
KAIB 101215Z AUTO 29006KT 10SM CLR 06/M08 A3000 RMK AO2 T00611083
KAIB 101155Z AUTO 31003KT 10SM CLR 07/M08 A2998 RMK AO2 T00741082 10130 20073
KAIB 101135Z AUTO 32003KT 10SM CLR 08/M08 A2998 RMK AO2 T00791080
KAIB 101115Z AUTO 33003KT 10SM CLR 08/M08 A2998 RMK AO2 T00761080
KAIB 101055Z AUTO 31006KT 10SM SCT120 08/M08 A2998 RMK AO2 T00811084
KAIB 101035Z AUTO 30006KT 10SM CLR 09/M08 A2997 RMK AO2 T00891079
KAIB 101015Z AUTO 33005KT 10SM CLR 09/M08 A2997 RMK AO2 T00911081
KAIB 100955Z AUTO 33005KT 10SM CLR 09/M09 A2997 RMK AO2 T00901088
KAIB 100935Z AUTO 32004KT 10SM CLR 10/M09 A2997 RMK AO2 T00951092
KAIB 100915Z AUTO 33004KT 10SM SCT120 10/M09 A2997 RMK AO2 T00981092
KAIB 100855Z AUTO 32003KT 10SM SCT120 10/M09 A2997 RMK AO2 T00981087
KAIB 100835Z AUTO 30004KT 10SM SCT120 10/M08 A2998 RMK AO2 T00971085
KAIB 100815Z AUTO 31005KT 10SM SCT120 10/M09 A2998 RMK AO2 T01031089
KAIB 100755Z AUTO 30004KT 10SM SCT120 10/M08 A2998 RMK AO2 T01001085
KAIB 100735Z AUTO 00000KT 10SM SCT120 11/M10 A3000 RMK AO2 T01111097
KAIB 100715Z AUTO 31003KT 10SM SCT110 13/M10 A3000 RMK AO2 T01251103
KAIB 100655Z AUTO 00000KT 10SM SCT110 12/M10 A3000 RMK AO2 LTG DSNT E T01231101
KAIB 100635Z AUTO 00000KT 10SM OVC110 12/M10 A3000 RMK AO2 T01231099
KAIB 100615Z AUTO 00000KT 10SM OVC100 13/M10 A3001 RMK AO2 T01251097
KAIB 100555Z AUTO 00000KT 10SM OVC100 12/M10 A3000 RMK AO2 T01211100 10174 20118
KAIB 100535Z AUTO 00000KT 10SM OVC110 13/M11 A3001 RMK AO2 T01271106
KAIB 100515Z AUTO 00000KT 10SM BKN120 13/M11 A3000 RMK AO2 LTG DSNT E T01251107
KAIB 100455Z AUTO 32003KT 10SM BKN120 13/M10 A3000 RMK AO2 T01251105
KAIB 100435Z AUTO 32004KT 10SM SCT120 13/M10 A3000 RMK AO2 T01271105
KAIB 100415Z AUTO 31004KT 10SM CLR 13/M10 A3000 RMK AO2 T01311105
KAIB 100355Z AUTO 31007KT 10SM CLR 13/M10 A3000 RMK AO2 T01301105 401870019
KAIB 100335Z AUTO 31005KT 10SM CLR 13/M10 A2998 RMK AO2 T01301105
KAIB 100315Z AUTO 32003KT 10SM CLR 13/M11 A2998 RMK AO2 T01331108
KAIB 100255Z AUTO 32004KT 10SM CLR 14/M11 A2997 RMK AO2 T01381110
KAIB 100235Z AUTO 32005KT 10SM CLR 14/M10 A2997 RMK AO2 T01411105
KAIB 100215Z AUTO 31006KT 10SM CLR 15/M11 A2996 RMK AO2 T01471106
KAIB 100155Z AUTO 33005KT 10SM CLR 16/M11 A2995 RMK AO2 T01551109
KAIB 100135Z AUTO 35004KT 10SM CLR 16/M11 A2995 RMK AO2 T01591107
KAIB 100115Z AUTO 34005KT 10SM CLR 16/M11 A2995 RMK AO2 T01631110
KAIB 100055Z AUTO 35004KT 10SM CLR 17/M11 A2995 RMK AO2 T01661111
KAIB 100035Z AUTO 34008KT 10SM CLR 17/M12 A2996 RMK AO2 T01681116
KAIB 100015Z AUTO 31010G14KT 10SM CLR 17/M12 A2997 RMK AO2 T01711125
KAIB 092355Z AUTO 32010G14KT 10SM CLR 18/M12 A2997 RMK AO2 T01771117 10187 20145
KAIB 092335Z AUTO 30013G18KT 10SM CLR 18/M12 A2997 RMK AO2 T01811122
KAIB 092315Z AUTO 28010KT 10SM SCT120 18/M12 A2997 RMK AO2 T01781121
KAIB 092255Z AUTO 29009G17KT 10SM SCT120 17/M12 A2998 RMK AO2 T01731125
KAIB 092235Z AUTO 30012G15KT 10SM SCT120 18/M12 A2998 RMK AO2 T01791125
KAIB 092215Z AUTO 30011G22KT 10SM SCT100 BKN120 18/M12 A2998 RMK AO2 T01761120
KAIB 092155Z AUTO 28014G21KT 10SM SCT100 BKN120 17/M13 A3000 RMK AO2 T01691126
KAIB 092135Z AUTO 27010G29KT 220V280 10SM CLR 18/M13 A3000 RMK AO2 T01811134
KAIB 092115Z AUTO 25016G23KT 10SM CLR 18/M13 A3000 RMK AO2 T01841131
KAIB 092055Z AUTO 27016G20KT 10SM CLR 18/M13 A3001 RMK AO2 T01751134
KAIB 092035Z AUTO 26012G16KT 10SM CLR 18/M13 A3001 RMK AO2 T01821135
KAIB 092015Z AUTO 36003KT 10SM CLR 18/M14 A3002 RMK AO2 T01771139
KAIB 091955Z AUTO 23007KT 190V270 10SM SCT120 17/M14 A3003 RMK AO2 T01741141
KAIB 091935Z AUTO 23006KT 10SM SCT120 17/M14 A3004 RMK AO2 T01661141
KAIB 091915Z AUTO 31007KT 10SM SCT120 16/M14 A3005 RMK AO2 T01641141
KAIB 091855Z AUTO 35003KT 10SM SCT120 16/M15 A3005 RMK AO2 T01551146
KAIB 091835Z AUTO 00000KT 10SM SCT100 BKN120 15/M15 A3007 RMK AO2 T01541148
KAIB 091815Z AUTO 28005KT 10SM SCT100 SCT120 16/M14 A3008 RMK AO2 T01551144
KAIB 091755Z AUTO 32008KT 10SM SCT120 15/M15 A3008 RMK AO2 T01501146 10150 20019
KAIB 091735Z AUTO 31009KT 240V340 10SM CLR 14/M15 A3009 RMK AO2 T01401151
KAIB 091715Z AUTO 29008KT 10SM CLR 14/M15 A3009 RMK AO2 T01401153
KAIB 091655Z AUTO 34005KT 10SM CLR 14/M15 A3008 RMK AO2 T01351150
KAIB 091635Z AUTO 34005KT 10SM CLR 13/M14 A3009 RMK AO2 T01301141
KAIB 091615Z AUTO 30007KT 10SM CLR 13/M14 A3009 RMK AO2 T01271142
KAIB 091555Z AUTO 30004KT 10SM CLR 11/M14 A3009 RMK AO2 T01141136
KAIB 091535Z AUTO 31003KT 10SM CLR 11/M14 A3010 RMK AO2 T01091138
KAIB 091515Z AUTO 30003KT 10SM CLR 11/M15 A3010 RMK AO2 T01071149
KAIB 091455Z AUTO 33005KT 10SM CLR 10/M13 A3010 RMK AO2 T01001134
KAIB 091435Z AUTO 00000KT 10SM CLR 09/M12 A3009 RMK AO2 T00941123
KAIB 091415Z AUTO 00000KT 10SM CLR 08/M11 A3009 RMK AO2 T00801111
KAIB 091355Z AUTO 10005KT 10SM CLR 07/M11 A3009 RMK AO2 T00651106
KAIB 091335Z AUTO 09008KT 10SM CLR 06/M11 A3009 RMK AO2 T00551106
KAIB 091315Z AUTO 11006KT 10SM CLR 04/M10 A3009 RMK AO2 T00441103
KAIB 091255Z AUTO 11008KT 10SM CLR 03/M10 A3008 RMK AO2 T00321099
KAIB 091235Z AUTO 10005KT 10SM CLR 03/M11 A3007 RMK AO2 T00311106
KAIB 091215Z AUTO 07007KT 10SM CLR 03/M10 A3007 RMK AO2 T00251105
KAIB 091155Z AUTO 08006KT 10SM CLR 03/M10 A3006 RMK AO2 T00321104 10117 20032
KAIB 091135Z AUTO 10007KT 10SM CLR 04/M10 A3005 RMK AO2 T00401105
KAIB 091115Z AUTO 08006KT 10SM CLR 05/M11 A3005 RMK AO2 T00451106
KAIB 091055Z AUTO 09007KT 10SM CLR 04/M11 A3004 RMK AO2 T00421106
KAIB 091035Z AUTO 10008KT 10SM CLR 05/M10 A3004 RMK AO2 T00481105
KAIB 091015Z AUTO 10007KT 10SM CLR 06/M10 A3004 RMK AO2 T00551104
KAIB 090955Z AUTO 10009KT 10SM CLR 06/M10 A3004 RMK AO2 T00581104
KAIB 090935Z AUTO 08007KT 10SM CLR 06/M11 A3004 RMK AO2 T00621107
KAIB 090915Z AUTO 08008KT 10SM CLR 06/M10 A3004 RMK AO2 T00611103